Terminal Aerodrome Forecast
Issued by NWS

Home | Current Version | Previous Version | Text Only | Print | Product List | Glossary Off
Versions: 1 2 3 4 5 6 7 8 9 10 11 12 13 14 15 16 17 18

000
FTUS43 KICT 271135
TAFSLN
TAF
KSLN 271135Z 2712/2812 VRB03KT P6SM SKC
     FM271300 15006KT P6SM SCT120 BKN200
     FM271900 14011KT P6SM OVC090
     FM280000 10012KT P6SM VCSH OVC030
     FM280300 10011G20KT P6SM -SHRA VCTS OVC015CB
     FM280700 07008KT P6SM OVC009=

USA.gov is the U.S. government's official web portal to all federal, state and local government web resources and services.